EZY57CP EGPH-EGGD
Flight info
| Callsign | EZY57CP |
|---|---|
| Flight time | N/A |
| Altitude | 33000 |
| Route | GOSAM P600 FENIK L612 NAVSO DCT ADZOP DCT EGTOC DCT NOKIN N862 KARNO DCT ALHUP DCT LUCSA N862 WEVBE |
| Aircraft | A320/M-SDE3FGHIRWY/LB1 |
Departure
| Time | 2026-05-05 17:48 |
|---|---|
| Airport | Edinburgh Airport (EGPH) |
Arrival
| Time | N/A |
|---|---|
| Airport | Bristol Airport (EGGD) |
| Time | Latitude | Longitude | Altitude | Speed | Heading |
|---|---|---|---|---|---|
| 2026-05-05 17:22 | 55.94834 | -3.35806 | 117 ft | 0 kts | 208° |
| 2026-05-05 17:36 | 55.94836 | -3.35805 | 116 ft | 2 kts | 208° |
| 2026-05-05 17:36 | 55.94853 | -3.35787 | 112 ft | 3 kts | 208° |
| 2026-05-05 17:36 | 55.94869 | -3.35773 | 112 ft | 3 kts | 215° |
| 2026-05-05 17:36 | 55.94882 | -3.35749 | 115 ft | 3 kts | 252° |
| 2026-05-05 17:37 | 55.94885 | -3.35715 | 113 ft | 3 kts | 281° |
| 2026-05-05 17:37 | 55.94881 | -3.35690 | 114 ft | 0 kts | 298° |
| 2026-05-05 17:41 | 55.94886 | -3.35707 | 113 ft | 7 kts | 299° |
| 2026-05-05 17:41 | 55.94929 | -3.35835 | 115 ft | 15 kts | 312° |
| 2026-05-05 17:41 | 55.95033 | -3.35824 | 115 ft | 16 kts | 349° |
| 2026-05-05 17:41 | 55.95084 | -3.35962 | 113 ft | 13 kts | 295° |
| 2026-05-05 17:42 | 55.95113 | -3.36104 | 112 ft | 12 kts | 288° |
| 2026-05-05 17:42 | 55.95137 | -3.36236 | 114 ft | 12 kts | 282° |
| 2026-05-05 17:42 | 55.95094 | -3.36402 | 113 ft | 18 kts | 239° |
| 2026-05-05 17:42 | 55.95021 | -3.36616 | 113 ft | 23 kts | 239° |
| 2026-05-05 17:43 | 55.94944 | -3.36845 | 114 ft | 19 kts | 239° |
| 2026-05-05 17:43 | 55.94880 | -3.37033 | 115 ft | 17 kts | 238° |
| 2026-05-05 17:43 | 55.94822 | -3.37204 | 115 ft | 15 kts | 240° |
| 2026-05-05 17:43 | 55.94768 | -3.37360 | 113 ft | 14 kts | 238° |
| 2026-05-05 17:44 | 55.94720 | -3.37504 | 116 ft | 13 kts | 239° |
| 2026-05-05 17:44 | 55.94664 | -3.37670 | 113 ft | 18 kts | 238° |
| 2026-05-05 17:44 | 55.94603 | -3.37848 | 112 ft | 16 kts | 238° |
| 2026-05-05 17:44 | 55.94608 | -3.37965 | 114 ft | 7 kts | 323° |
| 2026-05-05 17:45 | 55.94617 | -3.37975 | 114 ft | 0 kts | 327° |
| 2026-05-05 17:45 | 55.94619 | -3.37977 | 113 ft | 2 kts | 327° |
| 2026-05-05 17:45 | 55.94657 | -3.38021 | 112 ft | 10 kts | 328° |
| 2026-05-05 17:45 | 55.94716 | -3.38073 | 114 ft | 8 kts | 11° |
| 2026-05-05 17:46 | 55.94731 | -3.38040 | 114 ft | 0 kts | 58° |
| 2026-05-05 17:48 | 55.94732 | -3.38039 | 114 ft | 1 kts | 58° |
| 2026-05-05 17:48 | 55.94829 | -3.37749 | 113 ft | 70 kts | 59° |
| 2026-05-05 17:48 | 55.95224 | -3.36586 | 155 ft | 142 kts | 60° |
| 2026-05-05 17:48 | 55.95740 | -3.35053 | 1057 ft | 145 kts | 62° |
| 2026-05-05 17:49 | 55.96420 | -3.33601 | 1911 ft | 163 kts | 46° |
| 2026-05-05 17:49 | 55.97306 | -3.32168 | 2339 ft | 185 kts | 45° |
| 2026-05-05 17:49 | 55.98325 | -3.30526 | 2814 ft | 209 kts | 44° |
| 2026-05-05 17:49 | 55.99496 | -3.28752 | 3267 ft | 234 kts | 33° |
| 2026-05-05 17:50 | 56.01116 | -3.28099 | 3997 ft | 251 kts | 354° |
| 2026-05-05 17:50 | 56.02697 | -3.29425 | 4957 ft | 260 kts | 317° |
| 2026-05-05 17:50 | 56.03607 | -3.32231 | 5712 ft | 267 kts | 284° |
| 2026-05-05 17:50 | 56.03566 | -3.35547 | 6655 ft | 268 kts | 260° |
| 2026-05-05 17:51 | 56.03073 | -3.38763 | 7681 ft | 269 kts | 254° |
| 2026-05-05 17:51 | 56.02454 | -3.41929 | 8629 ft | 271 kts | 253° |
| 2026-05-05 17:51 | 56.01828 | -3.45115 | 9562 ft | 273 kts | 254° |
| 2026-05-05 17:51 | 56.01243 | -3.48335 | 10353 ft | 280 kts | 255° |
| 2026-05-05 17:52 | 56.00666 | -3.51815 | 10658 ft | 302 kts | 256° |
| 2026-05-05 17:52 | 56.00099 | -3.55503 | 11247 ft | 312 kts | 257° |
| 2026-05-05 17:52 | 55.99548 | -3.59280 | 12032 ft | 316 kts | 257° |
| 2026-05-05 17:52 | 55.99003 | -3.63103 | 12834 ft | 319 kts | 257° |
| 2026-05-05 17:53 | 55.98455 | -3.66969 | 13630 ft | 322 kts | 257° |
| 2026-05-05 17:53 | 55.97899 | -3.70866 | 14346 ft | 325 kts | 257° |
| 2026-05-05 17:53 | 55.97334 | -3.74802 | 15022 ft | 329 kts | 257° |
| 2026-05-05 17:53 | 55.96768 | -3.78721 | 15680 ft | 332 kts | 257° |
| 2026-05-05 17:54 | 55.96189 | -3.82733 | 16356 ft | 335 kts | 257° |
| 2026-05-05 17:54 | 55.95603 | -3.86781 | 17025 ft | 338 kts | 257° |
| 2026-05-05 17:54 | 55.95009 | -3.90873 | 17692 ft | 342 kts | 257° |
| 2026-05-05 17:54 | 55.94407 | -3.94994 | 18342 ft | 345 kts | 257° |
| 2026-05-05 17:55 | 55.93632 | -3.99064 | 18908 ft | 350 kts | 246° |
| 2026-05-05 17:55 | 55.92318 | -4.02761 | 19465 ft | 357 kts | 232° |
| 2026-05-05 17:55 | 55.90506 | -4.05825 | 20022 ft | 364 kts | 219° |
| 2026-05-05 17:55 | 55.88415 | -4.08398 | 20586 ft | 367 kts | 217° |
| 2026-05-05 17:56 | 55.86302 | -4.10976 | 21150 ft | 369 kts | 217° |
| 2026-05-05 17:56 | 55.84172 | -4.13575 | 21695 ft | 372 kts | 217° |
| 2026-05-05 17:56 | 55.82027 | -4.16187 | 22240 ft | 375 kts | 217° |
| 2026-05-05 17:56 | 55.79869 | -4.18816 | 22761 ft | 377 kts | 217° |
| 2026-05-05 17:57 | 55.77718 | -4.21416 | 23279 ft | 381 kts | 214° |
| 2026-05-05 17:57 | 55.75300 | -4.23567 | 23776 ft | 388 kts | 203° |
| 2026-05-05 17:57 | 55.72676 | -4.24778 | 24194 ft | 394 kts | 191° |
| 2026-05-05 17:57 | 55.70093 | -4.24979 | 24581 ft | 401 kts | 179° |
| 2026-05-05 17:58 | 55.67314 | -4.24150 | 24999 ft | 407 kts | 166° |
| 2026-05-05 17:58 | 55.64644 | -4.22384 | 25391 ft | 413 kts | 157° |
| 2026-05-05 17:58 | 55.62097 | -4.19949 | 25794 ft | 417 kts | 153° |
| 2026-05-05 17:58 | 55.59562 | -4.17435 | 26203 ft | 419 kts | 153° |
| 2026-05-05 17:59 | 55.57006 | -4.14924 | 26604 ft | 421 kts | 154° |
| 2026-05-05 17:59 | 55.54438 | -4.12419 | 27009 ft | 423 kts | 154° |
| 2026-05-05 17:59 | 55.51855 | -4.09909 | 27397 ft | 425 kts | 154° |
| 2026-05-05 17:59 | 55.49255 | -4.07387 | 27780 ft | 427 kts | 154° |
| 2026-05-05 18:00 | 55.46677 | -4.04888 | 28157 ft | 430 kts | 154° |
| 2026-05-05 18:00 | 55.44051 | -4.02341 | 28536 ft | 432 kts | 154° |
| 2026-05-05 18:00 | 55.41417 | -3.99790 | 28913 ft | 434 kts | 154° |
| 2026-05-05 18:00 | 55.38759 | -3.97222 | 29279 ft | 436 kts | 154° |
| 2026-05-05 18:01 | 55.36095 | -3.94647 | 29634 ft | 438 kts | 154° |
| 2026-05-05 18:01 | 55.33416 | -3.92057 | 29998 ft | 441 kts | 154° |
| 2026-05-05 18:01 | 55.30723 | -3.89461 | 30312 ft | 443 kts | 154° |
| 2026-05-05 18:01 | 55.28011 | -3.86851 | 30596 ft | 445 kts | 154° |
| 2026-05-05 18:02 | 55.25293 | -3.84240 | 30881 ft | 447 kts | 154° |
| 2026-05-05 18:02 | 55.22539 | -3.81713 | 31148 ft | 447 kts | 159° |
| 2026-05-05 18:02 | 55.19627 | -3.79850 | 31405 ft | 446 kts | 166° |
| 2026-05-05 18:02 | 55.16654 | -3.78251 | 31656 ft | 448 kts | 166° |
| 2026-05-05 18:03 | 55.13670 | -3.76640 | 31907 ft | 450 kts | 166° |
| 2026-05-05 18:03 | 55.10675 | -3.75011 | 32177 ft | 451 kts | 166° |
| 2026-05-05 18:03 | 55.07682 | -3.73371 | 32557 ft | 451 kts | 165° |
| 2026-05-05 18:03 | 55.04693 | -3.71727 | 32924 ft | 450 kts | 165° |
| 2026-05-05 18:04 | 55.01710 | -3.70092 | 33048 ft | 448 kts | 166° |
| 2026-05-05 18:04 | 54.98783 | -3.68492 | 33066 ft | 432 kts | 166° |
| 2026-05-05 18:04 | 54.95944 | -3.66949 | 33058 ft | 424 kts | 166° |
| 2026-05-05 18:05 | 54.90340 | -3.63915 | 33062 ft | 421 kts | 166° |
| 2026-05-05 18:05 | 54.84796 | -3.60914 | 33054 ft | 420 kts | 166° |
| 2026-05-05 18:06 | 54.79213 | -3.57893 | 33060 ft | 420 kts | 166° |
| 2026-05-05 18:06 | 54.73631 | -3.54892 | 33052 ft | 420 kts | 166° |
| 2026-05-05 18:07 | 54.68049 | -3.51905 | 33050 ft | 420 kts | 166° |
| 2026-05-05 18:07 | 54.62471 | -3.48922 | 33044 ft | 420 kts | 166° |
| 2026-05-05 18:08 | 54.56896 | -3.45949 | 33041 ft | 419 kts | 166° |
| 2026-05-05 18:08 | 54.51322 | -3.42987 | 33038 ft | 419 kts | 166° |
| 2026-05-05 18:09 | 54.45755 | -3.40034 | 33040 ft | 418 kts | 166° |
| 2026-05-05 18:09 | 54.40195 | -3.37098 | 33037 ft | 418 kts | 166° |
| 2026-05-05 18:10 | 54.34646 | -3.34180 | 33033 ft | 417 kts | 166° |
| 2026-05-05 18:10 | 54.29106 | -3.31266 | 33039 ft | 416 kts | 166° |
| 2026-05-05 18:11 | 54.23583 | -3.28366 | 33031 ft | 415 kts | 166° |
| 2026-05-05 18:11 | 54.18085 | -3.25679 | 33026 ft | 411 kts | 173° |
| 2026-05-05 18:12 | 54.12430 | -3.24645 | 33025 ft | 408 kts | 178° |
| 2026-05-05 18:12 | 54.06769 | -3.23775 | 33020 ft | 408 kts | 178° |
| 2026-05-05 18:13 | 54.01107 | -3.22900 | 33019 ft | 408 kts | 177° |
| 2026-05-05 18:13 | 53.96451 | -3.21367 | 33020 ft | 411 kts | 170° |
| 2026-05-05 18:14 | 53.89975 | -3.18894 | 33018 ft | 410 kts | 171° |
| 2026-05-05 18:14 | 53.85304 | -3.17126 | 33020 ft | 410 kts | 170° |
| 2026-05-05 18:15 | 53.79731 | -3.15018 | 33017 ft | 410 kts | 170° |
| 2026-05-05 18:15 | 53.74156 | -3.12921 | 33013 ft | 410 kts | 170° |
| 2026-05-05 18:16 | 53.68582 | -3.10818 | 33015 ft | 411 kts | 170° |
| 2026-05-05 18:16 | 53.63003 | -3.08727 | 33014 ft | 411 kts | 170° |
| 2026-05-05 18:17 | 53.57449 | -3.06658 | 33015 ft | 411 kts | 170° |
| 2026-05-05 18:17 | 53.51857 | -3.04582 | 33013 ft | 412 kts | 170° |
| 2026-05-05 18:18 | 53.46255 | -3.02495 | 33013 ft | 412 kts | 169° |
| 2026-05-05 18:18 | 53.40650 | -3.00403 | 33011 ft | 413 kts | 169° |
| 2026-05-05 18:19 | 53.35038 | -2.98330 | 33015 ft | 413 kts | 169° |
| 2026-05-05 18:19 | 53.29452 | -2.96270 | 33016 ft | 414 kts | 169° |
| 2026-05-05 18:20 | 53.23824 | -2.94193 | 33043 ft | 414 kts | 169° |
| 2026-05-05 18:20 | 53.18183 | -2.92127 | 33041 ft | 415 kts | 169° |
| 2026-05-05 18:21 | 53.12548 | -2.90074 | 33039 ft | 415 kts | 169° |
| 2026-05-05 18:21 | 53.06869 | -2.88473 | 33037 ft | 413 kts | 180° |
| 2026-05-05 18:22 | 53.01038 | -2.88859 | 33050 ft | 429 kts | 185° |
| 2026-05-05 18:22 | 52.94994 | -2.89373 | 32164 ft | 436 kts | 184° |
| 2026-05-05 18:22 | 52.91942 | -2.89629 | 30615 ft | 442 kts | 184° |
| 2026-05-05 18:23 | 52.88835 | -2.89994 | 29622 ft | 447 kts | 189° |
| 2026-05-05 18:23 | 52.85798 | -2.90737 | 29208 ft | 436 kts | 189° |
| 2026-05-05 18:23 | 52.82809 | -2.91445 | 28534 ft | 432 kts | 189° |
| 2026-05-05 18:23 | 52.79853 | -2.92127 | 27983 ft | 426 kts | 189° |
| 2026-05-05 18:24 | 52.76934 | -2.92795 | 27454 ft | 421 kts | 189° |
| 2026-05-05 18:24 | 52.74051 | -2.93456 | 26937 ft | 415 kts | 189° |
| 2026-05-05 18:24 | 52.71210 | -2.94078 | 26446 ft | 409 kts | 186° |
| 2026-05-05 18:24 | 52.68383 | -2.94333 | 25959 ft | 404 kts | 184° |
| 2026-05-05 18:25 | 52.65591 | -2.94560 | 25496 ft | 399 kts | 185° |
| 2026-05-05 18:25 | 52.63766 | -2.94711 | 25187 ft | 395 kts | 185° |
| 2026-05-05 18:25 | 52.60162 | -2.95017 | 24586 ft | 388 kts | 185° |
| 2026-05-05 18:25 | 52.57476 | -2.95245 | 24139 ft | 384 kts | 185° |
| 2026-05-05 18:26 | 52.54826 | -2.95468 | 23687 ft | 380 kts | 185° |
| 2026-05-05 18:26 | 52.52192 | -2.95688 | 23170 ft | 377 kts | 185° |
| 2026-05-05 18:26 | 52.49588 | -2.95903 | 22713 ft | 372 kts | 185° |
| 2026-05-05 18:26 | 52.47019 | -2.96117 | 22257 ft | 367 kts | 185° |
| 2026-05-05 18:27 | 52.44480 | -2.96328 | 21805 ft | 364 kts | 185° |
| 2026-05-05 18:27 | 52.41965 | -2.96536 | 21351 ft | 361 kts | 185° |
| 2026-05-05 18:27 | 52.39467 | -2.96741 | 20902 ft | 358 kts | 185° |
| 2026-05-05 18:27 | 52.36984 | -2.96946 | 20442 ft | 356 kts | 185° |
| 2026-05-05 18:28 | 52.32091 | -2.97348 | 19539 ft | 353 kts | 185° |
| 2026-05-05 18:28 | 52.29643 | -2.97547 | 19092 ft | 352 kts | 185° |
| 2026-05-05 18:28 | 52.27202 | -2.97744 | 18648 ft | 351 kts | 185° |
| 2026-05-05 18:29 | 52.24764 | -2.97943 | 18196 ft | 350 kts | 185° |
| 2026-05-05 18:29 | 52.22341 | -2.98141 | 17720 ft | 348 kts | 185° |
| 2026-05-05 18:29 | 52.19932 | -2.98334 | 17289 ft | 345 kts | 185° |
| 2026-05-05 18:29 | 52.17547 | -2.98523 | 16858 ft | 342 kts | 185° |
| 2026-05-05 18:30 | 52.15173 | -2.98714 | 16432 ft | 340 kts | 185° |
| 2026-05-05 18:30 | 52.12817 | -2.98904 | 16022 ft | 338 kts | 185° |
| 2026-05-05 18:30 | 52.10470 | -2.99093 | 15830 ft | 337 kts | 185° |
| 2026-05-05 18:30 | 52.08122 | -2.99284 | 15740 ft | 338 kts | 185° |
| 2026-05-05 18:31 | 52.05775 | -2.99478 | 15610 ft | 338 kts | 185° |
| 2026-05-05 18:31 | 52.03428 | -2.99672 | 15482 ft | 337 kts | 185° |
| 2026-05-05 18:31 | 52.01085 | -2.99865 | 15349 ft | 337 kts | 185° |
| 2026-05-05 18:31 | 51.98738 | -2.99979 | 14933 ft | 341 kts | 181° |
| 2026-05-05 18:32 | 51.96319 | -2.99876 | 14098 ft | 353 kts | 179° |
| 2026-05-05 18:32 | 51.93889 | -2.99668 | 13603 ft | 353 kts | 178° |
| 2026-05-05 18:32 | 51.91451 | -2.99412 | 13107 ft | 349 kts | 178° |
| 2026-05-05 18:32 | 51.89039 | -2.99152 | 12653 ft | 346 kts | 178° |
| 2026-05-05 18:33 | 51.86646 | -2.98906 | 12203 ft | 343 kts | 178° |
| 2026-05-05 18:33 | 51.84270 | -2.98678 | 11744 ft | 341 kts | 178° |
| 2026-05-05 18:33 | 51.81908 | -2.98459 | 11294 ft | 339 kts | 178° |
| 2026-05-05 18:33 | 51.79555 | -2.98245 | 10832 ft | 337 kts | 178° |
| 2026-05-05 18:34 | 51.77216 | -2.98036 | 10379 ft | 336 kts | 178° |
| 2026-05-05 18:34 | 51.74906 | -2.97835 | 10140 ft | 324 kts | 178° |
| 2026-05-05 18:34 | 51.72725 | -2.97644 | 9915 ft | 305 kts | 178° |
| 2026-05-05 18:34 | 51.70638 | -2.97461 | 9470 ft | 297 kts | 178° |
| 2026-05-05 18:35 | 51.68599 | -2.97283 | 9046 ft | 300 kts | 178° |
| 2026-05-05 18:35 | 51.66530 | -2.97104 | 8692 ft | 297 kts | 178° |
| 2026-05-05 18:35 | 51.64482 | -2.96926 | 8184 ft | 292 kts | 178° |
| 2026-05-05 18:35 | 51.62471 | -2.96753 | 7626 ft | 286 kts | 178° |
| 2026-05-05 18:36 | 51.60495 | -2.96585 | 7014 ft | 283 kts | 177° |
| 2026-05-05 18:36 | 51.58581 | -2.96421 | 6808 ft | 265 kts | 178° |
| 2026-05-05 18:36 | 51.56799 | -2.96267 | 6527 ft | 251 kts | 178° |
| 2026-05-05 18:36 | 51.55066 | -2.96119 | 6033 ft | 248 kts | 177° |
| 2026-05-05 18:37 | 51.53346 | -2.95972 | 5490 ft | 247 kts | 177° |
| 2026-05-05 18:37 | 51.51639 | -2.95827 | 4946 ft | 245 kts | 177° |
| 2026-05-05 18:37 | 51.49939 | -2.95681 | 4395 ft | 244 kts | 177° |
| 2026-05-05 18:37 | 51.48248 | -2.95532 | 3883 ft | 242 kts | 176° |
| 2026-05-05 18:38 | 51.46573 | -2.95382 | 3383 ft | 240 kts | 176° |
| 2026-05-05 18:38 | 51.44907 | -2.95236 | 2899 ft | 238 kts | 176° |
| 2026-05-05 18:38 | 51.43318 | -2.95102 | 2776 ft | 221 kts | 176° |
| 2026-05-05 18:38 | 51.41832 | -2.94977 | 2644 ft | 208 kts | 176° |
| 2026-05-05 18:39 | 51.40436 | -2.94628 | 2560 ft | 199 kts | 159° |
| 2026-05-05 18:39 | 51.39232 | -2.93618 | 2502 ft | 193 kts | 139° |
| 2026-05-05 18:39 | 51.38326 | -2.92096 | 2501 ft | 182 kts | 120° |
| 2026-05-05 18:39 | 51.37801 | -2.90370 | 2501 ft | 171 kts | 102° |
| 2026-05-05 18:40 | 51.37614 | -2.88515 | 2482 ft | 168 kts | 86° |
| 2026-05-05 18:40 | 51.37677 | -2.86672 | 2350 ft | 163 kts | 82° |
| 2026-05-05 18:40 | 51.37749 | -2.84895 | 2136 ft | 156 kts | 82° |
| 2026-05-05 18:40 | 51.37817 | -2.83214 | 1958 ft | 144 kts | 82° |
| 2026-05-05 18:41 | 51.37878 | -2.81683 | 1762 ft | 132 kts | 81° |
| 2026-05-05 18:41 | 51.37935 | -2.80259 | 1537 ft | 124 kts | 82° |
| 2026-05-05 18:41 | 51.37990 | -2.78891 | 1382 ft | 122 kts | 80° |
| 2026-05-05 18:41 | 51.38044 | -2.77538 | 1205 ft | 121 kts | 81° |
| 2026-05-05 18:42 | 51.38097 | -2.76203 | 1044 ft | 121 kts | 82° |
| 2026-05-05 18:42 | 51.38150 | -2.74867 | 827 ft | 120 kts | 80° |
| 2026-05-05 18:42 | 51.38208 | -2.73467 | 759 ft | 137 kts | 83° |